sensor_id;sensor_type;location;lat;lon;timestamp;pressure;altitude;pressure_sealevel;temperature;humidity
21431;BME280;10876;49.038;10.608;2023-03-18T00:01:45;98073.22;;;3.79;100.00
21431;BME280;10876;49.038;10.608;2023-03-18T00:04:12;98081.13;;;3.75;100.00
21431;BME280;10876;49.038;10.608;2023-03-18T00:06:39;98080.97;;;3.56;100.00
21431;BME280;10876;49.038;10.608;2023-03-18T00:09:06;98086.75;;;3.39;100.00
21431;BME280;10876;49.038;10.608;2023-03-18T00:11:33;98087.56;;;3.40;100.00
21431;BME280;10876;49.038;10.608;2023-03-18T00:14:01;98084.59;;;3.42;100.00
21431;BME280;10876;49.038;10.608;2023-03-18T00:16:28;98083.47;;;3.43;100.00
21431;BME280;10876;49.038;10.608;2023-03-18T00:18:55;98079.41;;;3.45;100.00
21431;BME280;10876;49.038;10.608;2023-03-18T00:21:22;98085.22;;;3.23;100.00
21431;BME280;10876;49.038;10.608;2023-03-18T00:23:49;98087.56;;;3.40;100.00
21431;BME280;10876;49.038;10.608;2023-03-18T00:26:20;98084.50;;;3.52;100.00
21431;BME280;10876;49.038;10.608;2023-03-18T00:28:47;98092.59;;;3.57;100.00
21431;BME280;10876;49.038;10.608;2023-03-18T00:31:15;98095.50;;;3.66;100.00
21431;BME280;10876;49.038;10.608;2023-03-18T00:33:43;98085.19;;;3.73;100.00
21431;BME280;10876;49.038;10.608;2023-03-18T00:36:11;98101.50;;;3.63;100.00
21431;BME280;10876;49.038;10.608;2023-03-18T00:38:39;98103.63;;;3.66;100.00
21431;BME280;10876;49.038;10.608;2023-03-18T00:41:07;98101.19;;;3.69;100.00
21431;BME280;10876;49.038;10.608;2023-03-18T00:43:38;98109.56;;;3.73;100.00
21431;BME280;10876;49.038;10.608;2023-03-18T00:46:12;98107.91;;;3.77;100.00
21431;BME280;10876;49.038;10.608;2023-03-18T00:48:42;98112.34;;;3.57;100.00
21431;BME280;10876;49.038;10.608;2023-03-18T00:51:09;98112.97;;;3.49;100.00
21431;BME280;10876;49.038;10.608;2023-03-18T00:53:39;98121.47;;;3.27;100.00
21431;BME280;10876;49.038;10.608;2023-03-18T00:56:06;98116.88;;;3.17;100.00
21431;BME280;10876;49.038;10.608;2023-03-18T00:58:33;98128.31;;;3.04;100.00
21431;BME280;10876;49.038;10.608;2023-03-18T01:01:01;98134.31;;;2.86;100.00
21431;BME280;10876;49.038;10.608;2023-03-18T01:03:28;98141.38;;;2.82;100.00
21431;BME280;10876;49.038;10.608;2023-03-18T01:05:57;98138.41;;;2.78;100.00
21431;BME280;10876;49.038;10.608;2023-03-18T01:08:24;98146.47;;;2.88;100.00
21431;BME280;10876;49.038;10.608;2023-03-18T01:10:51;98158.63;;;2.96;100.00
21431;BME280;10876;49.038;10.608;2023-03-18T01:13:18;98184.28;;;3.09;100.00
21431;BME280;10876;49.038;10.608;2023-03-18T01:15:45;98188.66;;;2.94;100.00
21431;BME280;10876;49.038;10.608;2023-03-18T01:18:12;98190.00;;;3.02;100.00
21431;BME280;10876;49.038;10.608;2023-03-18T01:20:39;98191.09;;;2.91;100.00
21431;BME280;10876;49.038;10.608;2023-03-18T01:23:08;98200.59;;;2.83;100.00
21431;BME280;10876;49.038;10.608;2023-03-18T01:25:34;98196.53;;;2.76;100.00
21431;BME280;10876;49.038;10.608;2023-03-18T01:28:02;98200.59;;;2.78;100.00
21431;BME280;10876;49.038;10.608;2023-03-18T01:30:29;98200.84;;;2.92;100.00
21431;BME280;10876;49.038;10.608;2023-03-18T01:32:56;98205.75;;;2.69;100.00
21431;BME280;10876;49.038;10.608;2023-03-18T01:35:23;98199.25;;;2.70;100.00
21431;BME280;10876;49.038;10.608;2023-03-18T01:37:51;98210.56;;;2.88;100.00
21431;BME280;10876;49.038;10.608;2023-03-18T01:40:20;98209.22;;;2.96;100.00
21431;BME280;10876;49.038;10.608;2023-03-18T01:42:51;98210.56;;;2.98;100.00
21431;BME280;10876;49.038;10.608;2023-03-18T01:45:21;98205.13;;;3.03;100.00
21431;BME280;10876;49.038;10.608;2023-03-18T01:47:50;98210.81;;;3.07;100.00
21431;BME280;10876;49.038;10.608;2023-03-18T01:50:19;98218.13;;;2.96;100.00
21431;BME280;10876;49.038;10.608;2023-03-18T01:52:48;98219.22;;;2.95;100.00
21431;BME280;10876;49.038;10.608;2023-03-18T01:55:21;98220.34;;;2.74;100.00
21431;BME280;10876;49.038;10.608;2023-03-18T01:57:50;98224.66;;;2.59;100.00
21431;BME280;10876;49.038;10.608;2023-03-18T02:00:18;98221.97;;;2.69;100.00
21431;BME280;10876;49.038;10.608;2023-03-18T02:02:47;98236.03;;;2.66;100.00
21431;BME280;10876;49.038;10.608;2023-03-18T02:05:17;98233.34;;;2.41;100.00
21431;BME280;10876;49.038;10.608;2023-03-18T02:07:45;98234.41;;;2.35;100.00
21431;BME280;10876;49.038;10.608;2023-03-18T02:10:18;98241.94;;;2.22;100.00
21431;BME280;10876;49.038;10.608;2023-03-18T02:12:49;98240.88;;;2.18;100.00
21431;BME280;10876;49.038;10.608;2023-03-18T02:15:19;98247.34;;;2.12;100.00
21431;BME280;10876;49.038;10.608;2023-03-18T02:17:51;98249.50;;;2.15;100.00
21431;BME280;10876;49.038;10.608;2023-03-18T02:20:28;98250.06;;;2.33;100.00
21431;BME280;10876;49.038;10.608;2023-03-18T02:23:05;98254.09;;;2.25;100.00
21431;BME280;10876;49.038;10.608;2023-03-18T02:25:42;98244.13;;;2.20;100.00
21431;BME280;10876;49.038;10.608;2023-03-18T02:28:17;98238.72;;;2.31;100.00
21431;BME280;10876;49.038;10.608;2023-03-18T02:30:47;98237.38;;;2.33;100.00
21431;BME280;10876;49.038;10.608;2023-03-18T02:33:17;98224.13;;;2.32;100.00
21431;BME280;10876;49.038;10.608;2023-03-18T02:35:46;98227.38;;;2.34;100.00
21431;BME280;10876;49.038;10.608;2023-03-18T02:38:15;98223.59;;;2.35;100.00
21431;BME280;10876;49.038;10.608;2023-03-18T02:40:42;98229.53;;;2.37;100.00
21431;BME280;10876;49.038;10.608;2023-03-18T02:43:17;98238.72;;;2.31;100.00
21431;BME280;10876;49.038;10.608;2023-03-18T02:45:50;98216.81;;;2.37;100.00
21431;BME280;10876;49.038;10.608;2023-03-18T02:48:23;98224.41;;;2.45;100.00
21431;BME280;10876;49.038;10.608;2023-03-18T02:50:51;98225.22;;;2.56;100.00
21431;BME280;10876;49.038;10.608;2023-03-18T02:53:18;98227.13;;;2.61;100.00
21431;BME280;10876;49.038;10.608;2023-03-18T02:55:45;98217.63;;;2.74;100.00
21431;BME280;10876;49.038;10.608;2023-03-18T02:58:12;98217.09;;;2.71;100.00
21431;BME280;10876;49.038;10.608;2023-03-18T03:00:40;98200.31;;;2.75;100.00
21431;BME280;10876;49.038;10.608;2023-03-18T03:03:07;98205.22;;;2.73;100.00
21431;BME280;10876;49.038;10.608;2023-03-18T03:05:34;98204.13;;;2.84;100.00
21431;BME280;10876;49.038;10.608;2023-03-18T03:08:01;98210.63;;;2.73;100.00
21431;BME280;10876;49.038;10.608;2023-03-18T03:10:28;98204.13;;;2.53;100.00
21431;BME280;10876;49.038;10.608;2023-03-18T03:12:55;98214.13;;;2.63;100.00
21431;BME280;10876;49.038;10.608;2023-03-18T03:15:22;98220.91;;;2.55;100.00
21431;BME280;10876;49.038;10.608;2023-03-18T03:17:51;98221.72;;;2.56;100.00
21431;BME280;10876;49.038;10.608;2023-03-18T03:20:18;98224.13;;;2.42;100.00
21431;BME280;10876;49.038;10.608;2023-03-18T03:22:45;98226.56;;;2.28;100.00
21431;BME280;10876;49.038;10.608;2023-03-18T03:25:13;98233.31;;;2.31;100.00
21431;BME280;10876;49.038;10.608;2023-03-18T03:27:40;98216.56;;;2.23;100.00
21431;BME280;10876;49.038;10.608;2023-03-18T03:30:10;98218.19;;;2.24;100.00
21431;BME280;10876;49.038;10.608;2023-03-18T03:32:37;98213.31;;;2.42;100.00
21431;BME280;10876;49.038;10.608;2023-03-18T03:35:06;98227.38;;;2.39;100.00
21431;BME280;10876;49.038;10.608;2023-03-18T03:37:33;98231.97;;;2.33;100.00
21431;BME280;10876;49.038;10.608;2023-03-18T03:40:00;98227.94;;;2.41;100.00
21431;BME280;10876;49.038;10.608;2023-03-18T03:42:27;98226.56;;;2.43;100.00
21431;BME280;10876;49.038;10.608;2023-03-18T03:44:54;98221.69;;;2.51;100.00
21431;BME280;10876;49.038;10.608;2023-03-18T03:47:20;98220.34;;;2.53;100.00
21431;BME280;10876;49.038;10.608;2023-03-18T03:49:47;98214.41;;;2.61;100.00
21431;BME280;10876;49.038;10.608;2023-03-18T03:52:15;98221.44;;;2.67;100.00
21431;BME280;10876;49.038;10.608;2023-03-18T03:54:44;98227.34;;;2.75;100.00
21431;BME280;10876;49.038;10.608;2023-03-18T03:57:11;98219.78;;;2.77;100.00
21431;BME280;10876;49.038;10.608;2023-03-18T03:59:38;98209.22;;;2.90;100.00
21431;BME280;10876;49.038;10.608;2023-03-18T04:02:04;98216.28;;;2.81;100.00
21431;BME280;10876;49.038;10.608;2023-03-18T04:04:31;98224.38;;;2.76;100.00
21431;BME280;10876;49.038;10.608;2023-03-18T04:06:58;98206.28;;;2.71;100.00
21431;BME280;10876;49.038;10.608;2023-03-18T04:09:26;98213.31;;;2.78;100.00
21431;BME280;10876;49.038;10.608;2023-03-18T04:11:53;98206.53;;;2.80;100.00
21431;BME280;10876;49.038;10.608;2023-03-18T04:14:20;98207.63;;;2.84;100.00
21431;BME280;10876;49.038;10.608;2023-03-18T04:16:46;98209.78;;;2.87;100.00
21431;BME280;10876;49.038;10.608;2023-03-18T04:19:13;98197.59;;;2.90;100.00
21431;BME280;10876;49.038;10.608;2023-03-18T04:21:41;98187.34;;;2.87;100.00
21431;BME280;10876;49.038;10.608;2023-03-18T04:24:09;98188.94;;;2.88;100.00
21431;BME280;10876;49.038;10.608;2023-03-18T04:26:37;98188.66;;;2.94;100.00
21431;BME280;10876;49.038;10.608;2023-03-18T04:29:04;98185.44;;;2.98;100.00
21431;BME280;10876;49.038;10.608;2023-03-18T04:31:31;98185.69;;;3.01;100.00
21431;BME280;10876;49.038;10.608;2023-03-18T04:33:58;98173.75;;;3.02;100.00
21431;BME280;10876;49.038;10.608;2023-03-18T04:36:25;98175.13;;;3.00;100.00
21431;BME280;10876;49.038;10.608;2023-03-18T04:38:52;98172.72;;;2.98;100.00
21431;BME280;10876;49.038;10.608;2023-03-18T04:41:19;98171.06;;;3.02;100.00
21431;BME280;10876;49.038;10.608;2023-03-18T04:43:47;98146.97;;;3.06;100.00
21431;BME280;10876;49.038;10.608;2023-03-18T04:46:15;98147.25;;;3.09;100.00
21431;BME280;10876;49.038;10.608;2023-03-18T04:48:42;98148.84;;;3.10;100.00
21431;BME280;10876;49.038;10.608;2023-03-18T04:51:09;98150.50;;;3.06;100.00
21431;BME280;10876;49.038;10.608;2023-03-18T04:53:37;98137.00;;;3.01;100.00
21431;BME280;10876;49.038;10.608;2023-03-18T04:56:04;98147.28;;;2.89;100.00
21431;BME280;10876;49.038;10.608;2023-03-18T04:58:33;98145.94;;;2.91;100.00
21431;BME280;10876;49.038;10.608;2023-03-18T05:01:01;98140.56;;;2.86;100.00
21431;BME280;10876;49.038;10.608;2023-03-18T05:03:29;98147.84;;;2.86;100.00
21431;BME280;10876;49.038;10.608;2023-03-18T05:05:56;98152.75;;;2.79;100.00
21431;BME280;10876;49.038;10.608;2023-03-18T05:08:22;98150.59;;;2.81;100.00
21431;BME280;10876;49.038;10.608;2023-03-18T05:10:49;98159.25;;;2.62;100.00
21431;BME280;10876;49.038;10.608;2023-03-18T05:13:16;98165.75;;;2.46;100.00
21431;BME280;10876;49.038;10.608;2023-03-18T05:15:42;98162.53;;;2.34;100.00
21431;BME280;10876;49.038;10.608;2023-03-18T05:18:10;98160.38;;;2.15;100.00
21431;BME280;10876;49.038;10.608;2023-03-18T05:20:38;98180.09;;;2.11;100.00
21431;BME280;10876;49.038;10.608;2023-03-18T05:23:05;98160.91;;;2.22;100.00
21431;BME280;10876;49.038;10.608;2023-03-18T05:25:31;98158.47;;;2.31;100.00
21431;BME280;10876;49.038;10.608;2023-03-18T05:27:59;98160.38;;;2.41;100.00
21431;BME280;10876;49.038;10.608;2023-03-18T05:30:25;98168.19;;;2.22;100.00
21431;BME280;10876;49.038;10.608;2023-03-18T05:32:53;98154.13;;;2.45;100.00
21431;BME280;10876;49.038;10.608;2023-03-18T05:35:21;98157.09;;;2.54;100.00
21431;BME280;10876;49.038;10.608;2023-03-18T05:37:47;98156.53;;;2.67;100.00
21431;BME280;10876;49.038;10.608;2023-03-18T05:40:14;98149.44;;;2.97;100.00
21431;BME280;10876;49.038;10.608;2023-03-18T05:42:41;98140.66;;;3.26;100.00
21431;BME280;10876;49.038;10.608;2023-03-18T05:45:09;98134.69;;;3.29;100.00
21431;BME280;10876;49.038;10.608;2023-03-18T05:47:35;98150.38;;;3.32;100.00
21431;BME280;10876;49.038;10.608;2023-03-18T05:50:02;98144.22;;;3.21;100.00
21431;BME280;10876;49.038;10.608;2023-03-18T05:52:30;98129.63;;;3.17;100.00
21431;BME280;10876;49.038;10.608;2023-03-18T05:54:57;98133.44;;;3.11;100.00
21431;BME280;10876;49.038;10.608;2023-03-18T05:57:23;98128.91;;;2.91;100.00
21431;BME280;10876;49.038;10.608;2023-03-18T05:59:50;98130.53;;;2.92;100.00
21431;BME280;10876;49.038;10.608;2023-03-18T06:02:17;98119.72;;;2.87;100.00
21431;BME280;10876;49.038;10.608;2023-03-18T06:04:44;98121.41;;;2.62;100.00
21431;BME280;10876;49.038;10.608;2023-03-18T06:07:12;98123.56;;;2.70;100.00
21431;BME280;10876;49.038;10.608;2023-03-18T06:09:40;98120.28;;;2.79;100.00
21431;BME280;10876;49.038;10.608;2023-03-18T06:12:07;98117.81;;;2.98;100.00
21431;BME280;10876;49.038;10.608;2023-03-18T06:17:01;98120.81;;;2.86;100.00
21431;BME280;10876;49.038;10.608;2023-03-18T06:19:28;98116.16;;;3.02;100.00
21431;BME280;10876;49.038;10.608;2023-03-18T06:21:56;98115.91;;;2.98;100.00
21431;BME280;10876;49.038;10.608;2023-03-18T06:24:23;98114.56;;;2.96;100.00
21431;BME280;10876;49.038;10.608;2023-03-18T06:26:51;98107.25;;;3.01;100.00
21431;BME280;10876;49.038;10.608;2023-03-18T06:29:18;98094.56;;;3.46;100.00
21431;BME280;10876;49.038;10.608;2023-03-18T06:31:45;98082.09;;;3.50;100.00
21431;BME280;10876;49.038;10.608;2023-03-18T06:34:12;98084.38;;;3.72;100.00
21431;BME280;10876;49.038;10.608;2023-03-18T06:36:39;98079.03;;;3.96;100.00
21431;BME280;10876;49.038;10.608;2023-03-18T06:39:05;98073.69;;;4.20;100.00
21431;BME280;10876;49.038;10.608;2023-03-18T06:41:32;98070.25;;;4.39;100.00
21431;BME280;10876;49.038;10.608;2023-03-18T06:44:00;98073.72;;;4.44;100.00
21431;BME280;10876;49.038;10.608;2023-03-18T06:46:28;98063.88;;;4.54;100.00
21431;BME280;10876;49.038;10.608;2023-03-18T06:48:55;98054.53;;;4.65;100.00
21431;BME280;10876;49.038;10.608;2023-03-18T06:51:22;98058.34;;;4.64;100.00
21431;BME280;10876;49.038;10.608;2023-03-18T06:53:49;98053.41;;;4.66;100.00
21431;BME280;10876;49.038;10.608;2023-03-18T06:56:15;98056.09;;;4.71;100.00
21431;BME280;10876;49.038;10.608;2023-03-18T06:58:42;98056.38;;;4.69;100.00
21431;BME280;10876;49.038;10.608;2023-03-18T07:01:11;98048.34;;;4.83;100.00
21431;BME280;10876;49.038;10.608;2023-03-18T07:03:38;98049.72;;;5.05;100.00
21431;BME280;10876;49.038;10.608;2023-03-18T07:06:06;98050.44;;;5.29;100.00
21431;BME280;10876;49.038;10.608;2023-03-18T07:08:34;98047.09;;;5.56;100.00
21431;BME280;10876;49.038;10.608;2023-03-18T07:11:00;98029.94;;;5.75;100.00
21431;BME280;10876;49.038;10.608;2023-03-18T07:13:27;98019.47;;;6.01;100.00
21431;BME280;10876;49.038;10.608;2023-03-18T07:15:54;98020.47;;;6.38;100.00
21431;BME280;10876;49.038;10.608;2023-03-18T07:18:24;98007.19;;;6.50;100.00
21431;BME280;10876;49.038;10.608;2023-03-18T07:20:51;98008.09;;;6.87;100.00
21431;BME280;10876;49.038;10.608;2023-03-18T07:23:17;97980.91;;;7.09;100.00
21431;BME280;10876;49.038;10.608;2023-03-18T07:25:45;97980.47;;;7.30;100.00
21431;BME280;10876;49.038;10.608;2023-03-18T07:28:11;97990.81;;;7.41;100.00
21431;BME280;10876;49.038;10.608;2023-03-18T07:30:38;97979.38;;;7.53;100.00
21431;BME280;10876;49.038;10.608;2023-03-18T07:33:05;97971.81;;;7.73;100.00
21431;BME280;10876;49.038;10.608;2023-03-18T07:35:33;97973.41;;;7.74;100.00
21431;BME280;10876;49.038;10.608;2023-03-18T07:38:02;97965.09;;;8.01;100.00
21431;BME280;10876;49.038;10.608;2023-03-18T07:40:28;97960.81;;;8.18;100.00
21431;BME280;10876;49.038;10.608;2023-03-18T07:42:55;97971.81;;;8.35;100.00
21431;BME280;10876;49.038;10.608;2023-03-18T07:45:22;97976.63;;;8.38;100.00
21431;BME280;10876;49.038;10.608;2023-03-18T07:47:50;97968.38;;;8.52;100.00
21431;BME280;10876;49.038;10.608;2023-03-18T07:50:17;97979.38;;;8.78;100.00
21431;BME280;10876;49.038;10.608;2023-03-18T07:52:45;97994.00;;;8.82;100.00
21431;BME280;10876;49.038;10.608;2023-03-18T07:55:12;98003.19;;;9.03;100.00
21431;BME280;10876;49.038;10.608;2023-03-18T07:57:39;98008.69;;;9.38;100.00
21431;BME280;10876;49.038;10.608;2023-03-18T08:00:09;98037.97;;;9.64;100.00
21431;BME280;10876;49.038;10.608;2023-03-18T08:02:36;98064.06;;;9.70;100.00
21431;BME280;10876;49.038;10.608;2023-03-18T08:05:04;98106.34;;;9.73;100.00
21431;BME280;10876;49.038;10.608;2023-03-18T08:07:31;98115.34;;;9.56;100.00
21431;BME280;10876;49.038;10.608;2023-03-18T08:10:00;98157.63;;;9.67;100.00
21431;BME280;10876;49.038;10.608;2023-03-18T08:12:27;98183.28;;;9.97;100.00
21431;BME280;10876;49.038;10.608;2023-03-18T08:14:54;98229.16;;;10.09;100.00
21431;BME280;10876;49.038;10.608;2023-03-18T08:17:20;98266.44;;;10.53;100.00
21431;BME280;10876;49.038;10.608;2023-03-18T08:19:47;98276.41;;;10.67;100.00
21431;BME280;10876;49.038;10.608;2023-03-18T08:22:14;98297.66;;;10.87;100.00
21431;BME280;10876;49.038;10.608;2023-03-18T08:24:41;98344.41;;;11.17;100.00
21431;BME280;10876;49.038;10.608;2023-03-18T08:27:11;98355.78;;;11.62;100.00
21431;BME280;10876;49.038;10.608;2023-03-18T08:29:37;98397.13;;;11.40;100.00
21431;BME280;10876;49.038;10.608;2023-03-18T08:32:05;98407.09;;;11.70;100.00
21431;BME280;10876;49.038;10.608;2023-03-18T08:34:32;98449.06;;;11.62;100.00
21431;BME280;10876;49.038;10.608;2023-03-18T08:36:58;98485.81;;;11.79;100.00
21431;BME280;10876;49.038;10.608;2023-03-18T08:39:25;98507.06;;;12.34;100.00
21431;BME280;10876;49.038;10.608;2023-03-18T08:41:52;98505.69;;;12.57;100.00
21431;BME280;10876;49.038;10.608;2023-03-18T08:44:20;98512.97;;;12.62;100.00
21431;BME280;10876;49.038;10.608;2023-03-18T08:46:47;98534.69;;;12.76;100.00
21431;BME280;10876;49.038;10.608;2023-03-18T08:49:14;98528.38;;;13.14;100.00
21431;BME280;10876;49.038;10.608;2023-03-18T08:51:40;98507.44;;;13.21;100.00
21431;BME280;10876;49.038;10.608;2023-03-18T08:54:07;98509.13;;;13.43;100.00
21431;BME280;10876;49.038;10.608;2023-03-18T08:56:34;98514.97;;;13.63;100.00
21431;BME280;10876;49.038;10.608;2023-03-18T08:59:01;98527.75;;;14.01;100.00
21431;BME280;10876;49.038;10.608;2023-03-18T09:01:29;98546.81;;;14.06;100.00
21431;BME280;10876;49.038;10.608;2023-03-18T09:03:56;98547.03;;;14.01;100.00
21431;BME280;10876;49.038;10.608;2023-03-18T09:06:23;98563.94;;;14.45;100.00
21431;BME280;10876;49.038;10.608;2023-03-18T09:08:50;98548.59;;;14.56;100.00
21431;BME280;10876;49.038;10.608;2023-03-18T09:11:17;98559.91;;;14.87;100.00
21431;BME280;10876;49.038;10.608;2023-03-18T09:13:44;98562.22;;;14.98;100.00
21431;BME280;10876;49.038;10.608;2023-03-18T09:16:11;98558.78;;;14.89;100.00
21431;BME280;10876;49.038;10.608;2023-03-18T09:18:39;98551.19;;;15.10;100.00
21431;BME280;10876;49.038;10.608;2023-03-18T09:21:06;98549.13;;;15.07;100.00
21431;BME280;10876;49.038;10.608;2023-03-18T09:23:33;98554.84;;;15.02;100.00
21431;BME280;10876;49.038;10.608;2023-03-18T09:26:00;98538.44;;;15.05;100.00
21431;BME280;10876;49.038;10.608;2023-03-18T09:28:28;98537.84;;;15.37;100.00
21431;BME280;10876;49.038;10.608;2023-03-18T09:30:54;98533.44;;;15.48;100.00
21431;BME280;10876;49.038;10.608;2023-03-18T09:33:21;98527.41;;;15.83;100.00
21431;BME280;10876;49.038;10.608;2023-03-18T09:35:50;98515.38;;;15.91;100.00
21431;BME280;10876;49.038;10.608;2023-03-18T09:38:18;98494.53;;;16.21;100.00
21431;BME280;10876;49.038;10.608;2023-03-18T09:40:53;98486.38;;;16.41;100.00
21431;BME280;10876;49.038;10.608;2023-03-18T09:43:35;98469.41;;;16.58;100.00
21431;BME280;10876;49.038;10.608;2023-03-18T09:46:09;98460.66;;;16.56;100.00
21431;BME280;10876;49.038;10.608;2023-03-18T09:51:57;98446.78;;;16.69;100.00
21431;BME280;10876;49.038;10.608;2023-03-18T09:54:33;98436.88;;;16.83;100.00
21431;BME280;10876;49.038;10.608;2023-03-18T09:57:05;98432.63;;;16.74;100.00
21431;BME280;10876;49.038;10.608;2023-03-18T09:59:37;98439.09;;;16.78;100.00
21431;BME280;10876;49.038;10.608;2023-03-18T10:02:17;98424.94;;;17.15;100.00
21431;BME280;10876;49.038;10.608;2023-03-18T10:04:49;98421.88;;;17.20;100.00
21431;BME280;10876;49.038;10.608;2023-03-18T10:07:22;98421.47;;;17.37;100.00
21431;BME280;10876;49.038;10.608;2023-03-18T10:09:53;98402.50;;;17.39;100.00
21431;BME280;10876;49.038;10.608;2023-03-18T10:12:28;98395.06;;;17.24;100.00
21431;BME280;10876;49.038;10.608;2023-03-18T10:15:03;98408.63;;;17.87;100.00
21431;BME280;10876;49.038;10.608;2023-03-18T10:17:37;98377.84;;;17.73;100.00
21431;BME280;10876;49.038;10.608;2023-03-18T10:20:14;98374.81;;;17.39;100.00
21431;BME280;10876;49.038;10.608;2023-03-18T10:23:01;98361.91;;;17.66;100.00
21431;BME280;10876;49.038;10.608;2023-03-18T10:25:34;98348.28;;;17.58;100.00
21431;BME280;10876;49.038;10.608;2023-03-18T10:28:16;98349.47;;;17.37;100.00
21431;BME280;10876;49.038;10.608;2023-03-18T10:30:54;98356.56;;;17.77;100.00
21431;BME280;10876;49.038;10.608;2023-03-18T10:33:34;98348.44;;;17.88;100.00
21431;BME280;10876;49.038;10.608;2023-03-18T10:36:04;98338.34;;;17.56;100.00
21431;BME280;10876;49.038;10.608;2023-03-18T10:38:38;98340.94;;;17.88;100.00
21431;BME280;10876;49.038;10.608;2023-03-18T10:41:15;98328.50;;;18.01;100.00
21431;BME280;10876;49.038;10.608;2023-03-18T10:43:43;98324.72;;;18.36;100.00
21431;BME280;10876;49.038;10.608;2023-03-18T10:46:14;98322.97;;;18.01;100.00
21431;BME280;10876;49.038;10.608;2023-03-18T10:48:43;98323.56;;;18.37;100.00
21431;BME280;10876;49.038;10.608;2023-03-18T10:51:15;98313.69;;;18.17;100.00
21431;BME280;10876;49.038;10.608;2023-03-18T10:53:50;98306.03;;;18.33;100.00
21431;BME280;10876;49.038;10.608;2023-03-18T10:56:18;98314.25;;;18.53;100.00
21431;BME280;10876;49.038;10.608;2023-03-18T10:58:45;98310.78;;;18.33;100.00
21431;BME280;10876;49.038;10.608;2023-03-18T11:01:15;98308.97;;;18.17;100.00
21431;BME280;10876;49.038;10.608;2023-03-18T11:03:46;98291.69;;;18.28;100.00
21431;BME280;10876;49.038;10.608;2023-03-18T11:06:16;98270.25;;;18.24;100.00
21431;BME280;10876;49.038;10.608;2023-03-18T11:08:47;98263.91;;;18.24;100.00
21431;BME280;10876;49.038;10.608;2023-03-18T11:11:19;98268.16;;;17.91;100.00
21431;BME280;10876;49.038;10.608;2023-03-18T11:13:49;98275.00;;;18.24;100.00
21431;BME280;10876;49.038;10.608;2023-03-18T11:16:23;98278.97;;;18.23;100.00
21431;BME280;10876;49.038;10.608;2023-03-18T11:18:54;98265.59;;;18.59;100.00
21431;BME280;10876;49.038;10.608;2023-03-18T11:21:21;98256.31;;;18.48;100.00
21431;BME280;10876;49.038;10.608;2023-03-18T11:23:52;98245.91;;;18.37;100.00
21431;BME280;10876;49.038;10.608;2023-03-18T11:26:46;98247.69;;;17.99;100.00
21431;BME280;10876;49.038;10.608;2023-03-18T11:29:17;98247.81;;;18.07;100.00
21431;BME280;10876;49.038;10.608;2023-03-18T11:31:49;98254.31;;;18.18;100.00
21431;BME280;10876;49.038;10.608;2023-03-18T11:34:18;98247.66;;;18.49;100.00
21431;BME280;10876;49.038;10.608;2023-03-18T11:36:52;98246.09;;;18.52;100.00
21431;BME280;10876;49.038;10.608;2023-03-18T11:39:21;98240.91;;;18.20;100.00
21431;BME280;10876;49.038;10.608;2023-03-18T11:41:49;98249.00;;;18.32;100.00
21431;BME280;10876;49.038;10.608;2023-03-18T11:44:22;98244.19;;;18.29;100.00
21431;BME280;10876;49.038;10.608;2023-03-18T11:46:53;98239.00;;;18.28;100.00
21431;BME280;10876;49.038;10.608;2023-03-18T11:49:22;98235.94;;;18.06;100.00
21431;BME280;10876;49.038;10.608;2023-03-18T11:51:54;98246.66;;;18.34;100.00
21431;BME280;10876;49.038;10.608;2023-03-18T12:00:59;98226.81;;;18.32;100.00
21431;BME280;10876;49.038;10.608;2023-03-18T12:03:59;98243.63;;;17.93;100.00
21431;BME280;10876;49.038;10.608;2023-03-18T12:06:32;98237.66;;;17.68;100.00
21431;BME280;10876;49.038;10.608;2023-03-18T12:09:08;98226.75;;;18.02;100.00
21431;BME280;10876;49.038;10.608;2023-03-18T12:11:52;98222.09;;;18.36;100.00
21431;BME280;10876;49.038;10.608;2023-03-18T12:14:29;98217.34;;;18.67;100.00
21431;BME280;10876;49.038;10.608;2023-03-18T12:17:06;98219.13;;;17.95;100.00
21431;BME280;10876;49.038;10.608;2023-03-18T12:20:06;98224.41;;;18.31;100.00
21431;BME280;10876;49.038;10.608;2023-03-18T12:22:51;98221.59;;;18.00;100.00
21431;BME280;10876;49.038;10.608;2023-03-18T12:25:34;98217.38;;;17.84;100.00
21431;BME280;10876;49.038;10.608;2023-03-18T12:28:11;98221.38;;;17.86;100.00
21431;BME280;10876;49.038;10.608;2023-03-18T12:31:19;98216.56;;;18.36;100.00
21431;BME280;10876;49.038;10.608;2023-03-18T12:33:54;98213.88;;;18.43;100.00
21431;BME280;10876;49.038;10.608;2023-03-18T12:36:30;98219.66;;;18.31;100.00
21431;BME280;10876;49.038;10.608;2023-03-18T12:39:25;98211.00;;;18.36;100.00
21431;BME280;10876;49.038;10.608;2023-03-18T12:42:01;98211.75;;;18.33;100.00
21431;BME280;10876;49.038;10.608;2023-03-18T12:44:54;98217.50;;;18.48;100.00
21431;BME280;10876;49.038;10.608;2023-03-18T12:47:29;98216.00;;;18.23;100.00
21431;BME280;10876;49.038;10.608;2023-03-18T12:50:01;98214.53;;;18.33;100.00
21431;BME280;10876;49.038;10.608;2023-03-18T12:52:35;98219.75;;;18.38;100.00
21431;BME280;10876;49.038;10.608;2023-03-18T12:55:08;98218.09;;;18.34;100.00
21431;BME280;10876;49.038;10.608;2023-03-18T12:57:44;98212.78;;;18.21;100.00
21431;BME280;10876;49.038;10.608;2023-03-18T13:00:18;98215.56;;;19.16;100.00
21431;BME280;10876;49.038;10.608;2023-03-18T13:02:54;98203.59;;;18.74;100.00
21431;BME280;10876;49.038;10.608;2023-03-18T13:05:28;98193.97;;;18.68;100.00
21431;BME280;10876;49.038;10.608;2023-03-18T13:11:11;98200.03;;;19.11;100.00
21431;BME280;10876;49.038;10.608;2023-03-18T13:13:44;98182.91;;;19.02;100.00